sensor_id;sensor_type;location;lat;lon;timestamp;P1;durP1;ratioP1;P2;durP2;ratioP2
38683;SDS011;24910;53.248;-6.134;2022-12-11T00:00:21;47.20;;;21.58;;
38683;SDS011;24910;53.248;-6.134;2022-12-11T00:02:50;52.38;;;21.25;;
38683;SDS011;24910;53.248;-6.134;2022-12-11T00:05:19;51.63;;;20.98;;
38683;SDS011;24910;53.248;-6.134;2022-12-11T00:07:48;53.08;;;21.95;;
38683;SDS011;24910;53.248;-6.134;2022-12-11T00:10:17;52.05;;;22.77;;
38683;SDS011;24910;53.248;-6.134;2022-12-11T00:12:46;48.70;;;20.83;;
38683;SDS011;24910;53.248;-6.134;2022-12-11T00:15:15;49.95;;;22.85;;
38683;SDS011;24910;53.248;-6.134;2022-12-11T00:17:46;53.67;;;21.95;;
38683;SDS011;24910;53.248;-6.134;2022-12-11T00:20:15;54.20;;;20.45;;
38683;SDS011;24910;53.248;-6.134;2022-12-11T00:22:44;51.22;;;20.85;;
38683;SDS011;24910;53.248;-6.134;2022-12-11T00:25:13;54.85;;;21.90;;
38683;SDS011;24910;53.248;-6.134;2022-12-11T00:27:44;52.38;;;20.10;;
38683;SDS011;24910;53.248;-6.134;2022-12-11T00:30:13;47.20;;;19.80;;
38683;SDS011;24910;53.248;-6.134;2022-12-11T00:32:42;47.53;;;19.23;;
38683;SDS011;24910;53.248;-6.134;2022-12-11T00:35:13;46.83;;;19.90;;
38683;SDS011;24910;53.248;-6.134;2022-12-11T00:37:42;50.97;;;20.60;;
38683;SDS011;24910;53.248;-6.134;2022-12-11T00:40:11;46.72;;;19.95;;
38683;SDS011;24910;53.248;-6.134;2022-12-11T00:42:40;45.80;;;19.88;;
38683;SDS011;24910;53.248;-6.134;2022-12-11T00:45:09;45.53;;;19.05;;
38683;SDS011;24910;53.248;-6.134;2022-12-11T00:47:38;40.33;;;18.80;;
38683;SDS011;24910;53.248;-6.134;2022-12-11T00:50:08;50.85;;;21.58;;
38683;SDS011;24910;53.248;-6.134;2022-12-11T00:52:39;52.72;;;24.58;;
38683;SDS011;24910;53.248;-6.134;2022-12-11T00:55:08;44.60;;;21.08;;
38683;SDS011;24910;53.248;-6.134;2022-12-11T00:57:38;49.10;;;21.10;;
38683;SDS011;24910;53.248;-6.134;2022-12-11T01:00:08;47.65;;;21.52;;
38683;SDS011;24910;53.248;-6.134;2022-12-11T01:05:08;43.03;;;19.00;;
38683;SDS011;24910;53.248;-6.134;2022-12-11T01:07:37;41.25;;;18.13;;
38683;SDS011;24910;53.248;-6.134;2022-12-11T01:10:09;31.88;;;15.75;;
38683;SDS011;24910;53.248;-6.134;2022-12-11T01:12:50;30.38;;;14.85;;
38683;SDS011;24910;53.248;-6.134;2022-12-11T01:15:20;32.22;;;15.38;;
38683;SDS011;24910;53.248;-6.134;2022-12-11T01:17:51;33.17;;;15.80;;
38683;SDS011;24910;53.248;-6.134;2022-12-11T01:20:21;34.38;;;15.90;;
38683;SDS011;24910;53.248;-6.134;2022-12-11T01:22:51;27.25;;;13.63;;
38683;SDS011;24910;53.248;-6.134;2022-12-11T01:25:22;29.30;;;14.55;;
38683;SDS011;24910;53.248;-6.134;2022-12-11T01:27:51;31.75;;;15.13;;
38683;SDS011;24910;53.248;-6.134;2022-12-11T01:30:22;30.27;;;15.18;;
38683;SDS011;24910;53.248;-6.134;2022-12-11T01:32:52;31.90;;;15.68;;
38683;SDS011;24910;53.248;-6.134;2022-12-11T01:35:21;34.08;;;16.42;;
38683;SDS011;24910;53.248;-6.134;2022-12-11T01:37:50;36.25;;;15.95;;
38683;SDS011;24910;53.248;-6.134;2022-12-11T01:40:19;37.13;;;16.70;;
38683;SDS011;24910;53.248;-6.134;2022-12-11T01:42:50;36.80;;;17.13;;
38683;SDS011;24910;53.248;-6.134;2022-12-11T01:45:24;34.78;;;17.13;;
38683;SDS011;24910;53.248;-6.134;2022-12-11T01:47:58;29.98;;;15.85;;
38683;SDS011;24910;53.248;-6.134;2022-12-11T01:50:29;35.53;;;17.13;;
38683;SDS011;24910;53.248;-6.134;2022-12-11T01:53:02;40.42;;;18.52;;
38683;SDS011;24910;53.248;-6.134;2022-12-11T01:55:35;42.22;;;19.73;;
38683;SDS011;24910;53.248;-6.134;2022-12-11T01:58:06;37.80;;;18.67;;
38683;SDS011;24910;53.248;-6.134;2022-12-11T02:00:37;42.08;;;20.02;;
38683;SDS011;24910;53.248;-6.134;2022-12-11T02:03:06;37.03;;;17.50;;
38683;SDS011;24910;53.248;-6.134;2022-12-11T02:05:35;33.65;;;16.80;;
38683;SDS011;24910;53.248;-6.134;2022-12-11T02:08:05;39.92;;;19.27;;
38683;SDS011;24910;53.248;-6.134;2022-12-11T02:10:42;35.58;;;17.17;;
38683;SDS011;24910;53.248;-6.134;2022-12-11T02:13:25;36.00;;;17.15;;
38683;SDS011;24910;53.248;-6.134;2022-12-11T02:16:04;35.03;;;17.33;;
38683;SDS011;24910;53.248;-6.134;2022-12-11T02:18:41;35.88;;;17.10;;
38683;SDS011;24910;53.248;-6.134;2022-12-11T02:21:22;33.05;;;16.42;;
38683;SDS011;24910;53.248;-6.134;2022-12-11T02:24:03;31.77;;;16.02;;
38683;SDS011;24910;53.248;-6.134;2022-12-11T02:32:18;32.47;;;15.45;;
38683;SDS011;24910;53.248;-6.134;2022-12-11T02:34:53;31.75;;;15.23;;
38683;SDS011;24910;53.248;-6.134;2022-12-11T02:37:25;32.92;;;16.33;;
38683;SDS011;24910;53.248;-6.134;2022-12-11T02:39:56;29.60;;;15.32;;
38683;SDS011;24910;53.248;-6.134;2022-12-11T02:42:26;30.83;;;14.85;;
38683;SDS011;24910;53.248;-6.134;2022-12-11T02:44:59;28.50;;;14.25;;
38683;SDS011;24910;53.248;-6.134;2022-12-11T02:47:30;27.98;;;13.93;;
38683;SDS011;24910;53.248;-6.134;2022-12-11T02:50:01;31.50;;;15.13;;
38683;SDS011;24910;53.248;-6.134;2022-12-11T02:52:34;29.50;;;14.77;;
38683;SDS011;24910;53.248;-6.134;2022-12-11T02:55:05;29.98;;;13.82;;
38683;SDS011;24910;53.248;-6.134;2022-12-11T02:57:37;30.52;;;14.98;;
38683;SDS011;24910;53.248;-6.134;2022-12-11T03:00:12;29.08;;;14.48;;
38683;SDS011;24910;53.248;-6.134;2022-12-11T03:02:42;33.65;;;16.30;;
38683;SDS011;24910;53.248;-6.134;2022-12-11T03:05:12;33.05;;;16.05;;
38683;SDS011;24910;53.248;-6.134;2022-12-11T03:07:42;36.13;;;16.58;;
38683;SDS011;24910;53.248;-6.134;2022-12-11T03:10:13;32.88;;;17.10;;
38683;SDS011;24910;53.248;-6.134;2022-12-11T03:12:45;33.58;;;16.60;;
38683;SDS011;24910;53.248;-6.134;2022-12-11T03:15:22;32.50;;;17.15;;
38683;SDS011;24910;53.248;-6.134;2022-12-11T03:17:59;38.50;;;18.52;;
38683;SDS011;24910;53.248;-6.134;2022-12-11T03:20:35;33.40;;;16.45;;
38683;SDS011;24910;53.248;-6.134;2022-12-11T03:23:11;31.27;;;16.52;;
38683;SDS011;24910;53.248;-6.134;2022-12-11T03:25:50;32.17;;;16.67;;
38683;SDS011;24910;53.248;-6.134;2022-12-11T03:28:22;34.20;;;15.98;;
38683;SDS011;24910;53.248;-6.134;2022-12-11T03:30:58;29.55;;;15.30;;
38683;SDS011;24910;53.248;-6.134;2022-12-11T03:33:33;27.92;;;14.40;;
38683;SDS011;24910;53.248;-6.134;2022-12-11T03:36:07;27.10;;;13.65;;
38683;SDS011;24910;53.248;-6.134;2022-12-11T03:38:40;26.02;;;12.60;;
38683;SDS011;24910;53.248;-6.134;2022-12-11T03:41:15;25.75;;;12.43;;
38683;SDS011;24910;53.248;-6.134;2022-12-11T03:43:46;26.92;;;12.93;;
38683;SDS011;24910;53.248;-6.134;2022-12-11T03:46:18;24.33;;;12.07;;
38683;SDS011;24910;53.248;-6.134;2022-12-11T03:48:51;24.67;;;11.93;;
38683;SDS011;24910;53.248;-6.134;2022-12-11T03:51:23;24.23;;;11.82;;
38683;SDS011;24910;53.248;-6.134;2022-12-11T03:53:54;23.75;;;11.32;;
38683;SDS011;24910;53.248;-6.134;2022-12-11T03:56:23;21.95;;;11.18;;
38683;SDS011;24910;53.248;-6.134;2022-12-11T03:58:54;26.70;;;11.75;;
38683;SDS011;24910;53.248;-6.134;2022-12-11T04:01:24;23.88;;;12.23;;
38683;SDS011;24910;53.248;-6.134;2022-12-11T04:03:53;25.75;;;12.73;;
38683;SDS011;24910;53.248;-6.134;2022-12-11T04:06:22;27.55;;;13.68;;
38683;SDS011;24910;53.248;-6.134;2022-12-11T04:08:51;24.23;;;12.65;;
38683;SDS011;24910;53.248;-6.134;2022-12-11T04:11:20;25.80;;;13.38;;
38683;SDS011;24910;53.248;-6.134;2022-12-11T04:14:02;28.13;;;12.68;;
38683;SDS011;24910;53.248;-6.134;2022-12-11T04:16:50;25.05;;;13.25;;
38683;SDS011;24910;53.248;-6.134;2022-12-11T04:19:22;27.88;;;14.13;;
38683;SDS011;24910;53.248;-6.134;2022-12-11T04:22:09;26.25;;;13.85;;
38683;SDS011;24910;53.248;-6.134;2022-12-11T04:24:56;26.33;;;12.85;;
38683;SDS011;24910;53.248;-6.134;2022-12-11T04:27:26;26.67;;;12.30;;
38683;SDS011;24910;53.248;-6.134;2022-12-11T04:30:13;25.55;;;13.40;;
38683;SDS011;24910;53.248;-6.134;2022-12-11T04:32:45;26.90;;;13.27;;
38683;SDS011;24910;53.248;-6.134;2022-12-11T04:35:14;27.27;;;13.63;;
38683;SDS011;24910;53.248;-6.134;2022-12-11T04:37:43;30.40;;;14.45;;
38683;SDS011;24910;53.248;-6.134;2022-12-11T04:40:13;26.58;;;13.48;;
38683;SDS011;24910;53.248;-6.134;2022-12-11T04:42:44;28.08;;;12.60;;
38683;SDS011;24910;53.248;-6.134;2022-12-11T04:45:13;22.65;;;12.10;;
38683;SDS011;24910;53.248;-6.134;2022-12-11T04:47:42;22.17;;;11.40;;
38683;SDS011;24910;53.248;-6.134;2022-12-11T04:50:12;24.70;;;11.32;;
38683;SDS011;24910;53.248;-6.134;2022-12-11T04:52:42;25.02;;;11.90;;
38683;SDS011;24910;53.248;-6.134;2022-12-11T04:55:12;25.02;;;12.30;;
38683;SDS011;24910;53.248;-6.134;2022-12-11T04:57:41;28.17;;;13.13;;
38683;SDS011;24910;53.248;-6.134;2022-12-11T05:00:11;25.10;;;12.32;;
38683;SDS011;24910;53.248;-6.134;2022-12-11T05:02:40;23.70;;;12.33;;
38683;SDS011;24910;53.248;-6.134;2022-12-11T05:05:10;23.17;;;11.40;;
38683;SDS011;24910;53.248;-6.134;2022-12-11T05:07:41;28.63;;;11.98;;
38683;SDS011;24910;53.248;-6.134;2022-12-11T05:10:10;25.65;;;12.73;;
38683;SDS011;24910;53.248;-6.134;2022-12-11T05:12:39;27.15;;;13.15;;
38683;SDS011;24910;53.248;-6.134;2022-12-11T05:15:08;22.83;;;11.82;;
38683;SDS011;24910;53.248;-6.134;2022-12-11T05:17:38;23.88;;;12.55;;
38683;SDS011;24910;53.248;-6.134;2022-12-11T05:20:07;23.75;;;12.43;;
38683;SDS011;24910;53.248;-6.134;2022-12-11T05:22:37;26.17;;;12.63;;
38683;SDS011;24910;53.248;-6.134;2022-12-11T05:25:08;22.13;;;11.85;;
38683;SDS011;24910;53.248;-6.134;2022-12-11T05:30:07;24.08;;;11.82;;
38683;SDS011;24910;53.248;-6.134;2022-12-11T05:32:37;23.33;;;12.15;;
38683;SDS011;24910;53.248;-6.134;2022-12-11T05:35:06;24.40;;;12.65;;
38683;SDS011;24910;53.248;-6.134;2022-12-11T05:37:36;21.92;;;11.18;;
38683;SDS011;24910;53.248;-6.134;2022-12-11T05:40:05;22.42;;;11.95;;
38683;SDS011;24910;53.248;-6.134;2022-12-11T05:42:38;23.85;;;11.70;;
38683;SDS011;24910;53.248;-6.134;2022-12-11T05:45:08;16.23;;;10.23;;
38683;SDS011;24910;53.248;-6.134;2022-12-11T05:47:38;21.52;;;10.18;;
38683;SDS011;24910;53.248;-6.134;2022-12-11T05:50:07;19.08;;;10.10;;
38683;SDS011;24910;53.248;-6.134;2022-12-11T05:52:37;19.95;;;10.32;;
38683;SDS011;24910;53.248;-6.134;2022-12-11T05:55:07;18.50;;;10.02;;
38683;SDS011;24910;53.248;-6.134;2022-12-11T05:57:37;20.63;;;10.43;;
38683;SDS011;24910;53.248;-6.134;2022-12-11T06:00:07;21.40;;;10.75;;
38683;SDS011;24910;53.248;-6.134;2022-12-11T06:02:37;18.58;;;10.38;;
38683;SDS011;24910;53.248;-6.134;2022-12-11T06:05:06;20.05;;;10.68;;
38683;SDS011;24910;53.248;-6.134;2022-12-11T06:07:35;23.75;;;11.35;;
38683;SDS011;24910;53.248;-6.134;2022-12-11T06:10:05;21.83;;;11.95;;
38683;SDS011;24910;53.248;-6.134;2022-12-11T06:12:36;20.85;;;11.65;;
38683;SDS011;24910;53.248;-6.134;2022-12-11T06:15:05;25.42;;;12.07;;
38683;SDS011;24910;53.248;-6.134;2022-12-11T06:17:35;23.50;;;11.35;;
38683;SDS011;24910;53.248;-6.134;2022-12-11T06:20:05;22.15;;;11.57;;
38683;SDS011;24910;53.248;-6.134;2022-12-11T06:22:34;25.13;;;11.43;;
38683;SDS011;24910;53.248;-6.134;2022-12-11T06:25:03;23.02;;;10.98;;
38683;SDS011;24910;53.248;-6.134;2022-12-11T06:27:33;20.35;;;9.55;;
38683;SDS011;24910;53.248;-6.134;2022-12-11T06:30:04;21.17;;;10.52;;
38683;SDS011;24910;53.248;-6.134;2022-12-11T06:32:34;20.20;;;10.60;;
38683;SDS011;24910;53.248;-6.134;2022-12-11T06:35:03;18.98;;;9.57;;
38683;SDS011;24910;53.248;-6.134;2022-12-11T06:37:33;18.55;;;9.70;;
38683;SDS011;24910;53.248;-6.134;2022-12-11T06:40:02;18.00;;;9.82;;
38683;SDS011;24910;53.248;-6.134;2022-12-11T06:42:32;18.33;;;10.02;;
38683;SDS011;24910;53.248;-6.134;2022-12-11T06:45:03;19.35;;;9.50;;
38683;SDS011;24910;53.248;-6.134;2022-12-11T06:47:33;15.45;;;8.85;;
38683;SDS011;24910;53.248;-6.134;2022-12-11T06:50:02;16.80;;;9.38;;
38683;SDS011;24910;53.248;-6.134;2022-12-11T06:52:31;17.50;;;8.82;;
38683;SDS011;24910;53.248;-6.134;2022-12-11T06:55:00;18.05;;;9.65;;
38683;SDS011;24910;53.248;-6.134;2022-12-11T06:57:30;18.48;;;8.52;;
38683;SDS011;24910;53.248;-6.134;2022-12-11T06:59:59;17.77;;;8.15;;
38683;SDS011;24910;53.248;-6.134;2022-12-11T07:02:29;17.23;;;8.60;;
38683;SDS011;24910;53.248;-6.134;2022-12-11T07:04:58;17.90;;;8.15;;
38683;SDS011;24910;53.248;-6.134;2022-12-11T07:07:27;17.65;;;8.73;;
38683;SDS011;24910;53.248;-6.134;2022-12-11T07:09:56;20.95;;;10.32;;
38683;SDS011;24910;53.248;-6.134;2022-12-11T07:12:34;18.23;;;9.85;;
38683;SDS011;24910;53.248;-6.134;2022-12-11T07:15:03;23.52;;;10.55;;
38683;SDS011;24910;53.248;-6.134;2022-12-11T07:17:34;20.92;;;9.93;;
38683;SDS011;24910;53.248;-6.134;2022-12-11T07:20:03;21.20;;;10.55;;
38683;SDS011;24910;53.248;-6.134;2022-12-11T07:22:33;17.73;;;10.23;;
38683;SDS011;24910;53.248;-6.134;2022-12-11T07:25:09;20.63;;;10.70;;
38683;SDS011;24910;53.248;-6.134;2022-12-11T07:27:38;17.77;;;9.63;;
38683;SDS011;24910;53.248;-6.134;2022-12-11T07:30:08;23.13;;;10.27;;
38683;SDS011;24910;53.248;-6.134;2022-12-11T07:32:39;20.33;;;9.47;;
38683;SDS011;24910;53.248;-6.134;2022-12-11T07:35:08;21.75;;;9.05;;
38683;SDS011;24910;53.248;-6.134;2022-12-11T07:37:38;17.50;;;9.75;;
38683;SDS011;24910;53.248;-6.134;2022-12-11T07:40:08;113.90;;;13.65;;
38683;SDS011;24910;53.248;-6.134;2022-12-11T07:42:38;422.30;;;23.70;;
38683;SDS011;24910;53.248;-6.134;2022-12-11T07:45:12;20.65;;;11.10;;
38683;SDS011;24910;53.248;-6.134;2022-12-11T07:47:42;20.17;;;9.82;;
38683;SDS011;24910;53.248;-6.134;2022-12-11T07:50:11;19.00;;;8.68;;
38683;SDS011;24910;53.248;-6.134;2022-12-11T07:52:40;16.80;;;9.27;;
38683;SDS011;24910;53.248;-6.134;2022-12-11T07:55:09;20.00;;;9.15;;
38683;SDS011;24910;53.248;-6.134;2022-12-11T07:57:39;18.35;;;8.75;;
38683;SDS011;24910;53.248;-6.134;2022-12-11T08:00:08;17.88;;;8.70;;
38683;SDS011;24910;53.248;-6.134;2022-12-11T08:02:38;18.42;;;9.32;;
38683;SDS011;24910;53.248;-6.134;2022-12-11T08:05:09;15.45;;;8.10;;
38683;SDS011;24910;53.248;-6.134;2022-12-11T08:07:41;14.82;;;8.70;;
38683;SDS011;24910;53.248;-6.134;2022-12-11T08:10:10;17.70;;;8.93;;
38683;SDS011;24910;53.248;-6.134;2022-12-11T08:12:39;17.00;;;8.23;;
38683;SDS011;24910;53.248;-6.134;2022-12-11T08:15:09;33.95;;;8.95;;
38683;SDS011;24910;53.248;-6.134;2022-12-11T08:17:41;19.85;;;9.25;;
38683;SDS011;24910;53.248;-6.134;2022-12-11T08:22:42;16.75;;;8.68;;
38683;SDS011;24910;53.248;-6.134;2022-12-11T08:25:11;26.55;;;9.10;;
38683;SDS011;24910;53.248;-6.134;2022-12-11T08:27:41;15.10;;;8.00;;
38683;SDS011;24910;53.248;-6.134;2022-12-11T08:30:12;14.00;;;7.55;;
38683;SDS011;24910;53.248;-6.134;2022-12-11T08:32:49;15.85;;;7.00;;
38683;SDS011;24910;53.248;-6.134;2022-12-11T08:35:20;17.60;;;8.20;;
38683;SDS011;24910;53.248;-6.134;2022-12-11T08:37:49;15.30;;;7.93;;
38683;SDS011;24910;53.248;-6.134;2022-12-11T08:40:18;16.63;;;8.40;;
38683;SDS011;24910;53.248;-6.134;2022-12-11T08:42:48;15.90;;;8.02;;
38683;SDS011;24910;53.248;-6.134;2022-12-11T08:45:19;15.30;;;7.78;;
38683;SDS011;24910;53.248;-6.134;2022-12-11T08:47:49;16.25;;;6.65;;
38683;SDS011;24910;53.248;-6.134;2022-12-11T08:50:21;13.30;;;6.70;;
38683;SDS011;24910;53.248;-6.134;2022-12-11T08:52:50;13.88;;;7.25;;
38683;SDS011;24910;53.248;-6.134;2022-12-11T08:55:19;13.82;;;6.95;;
38683;SDS011;24910;53.248;-6.134;2022-12-11T08:57:49;12.73;;;6.50;;
38683;SDS011;24910;53.248;-6.134;2022-12-11T09:00:18;14.35;;;7.05;;
38683;SDS011;24910;53.248;-6.134;2022-12-11T09:02:47;14.15;;;7.32;;
38683;SDS011;24910;53.248;-6.134;2022-12-11T09:05:16;12.65;;;6.22;;
38683;SDS011;24910;53.248;-6.134;2022-12-11T09:07:47;13.10;;;7.07;;
38683;SDS011;24910;53.248;-6.134;2022-12-11T09:10:16;12.18;;;6.70;;
38683;SDS011;24910;53.248;-6.134;2022-12-11T09:12:45;17.27;;;7.10;;
38683;SDS011;24910;53.248;-6.134;2022-12-11T09:15:14;12.55;;;7.05;;
38683;SDS011;24910;53.248;-6.134;2022-12-11T09:17:43;13.88;;;6.57;;
38683;SDS011;24910;53.248;-6.134;2022-12-11T09:20:12;13.18;;;6.97;;
38683;SDS011;24910;53.248;-6.134;2022-12-11T09:22:42;15.20;;;7.18;;
38683;SDS011;24910;53.248;-6.134;2022-12-11T09:25:12;11.32;;;6.78;;
38683;SDS011;24910;53.248;-6.134;2022-12-11T09:27:41;13.23;;;6.53;;
38683;SDS011;24910;53.248;-6.134;2022-12-11T09:30:10;12.82;;;6.10;;
38683;SDS011;24910;53.248;-6.134;2022-12-11T09:32:40;11.95;;;6.45;;
38683;SDS011;24910;53.248;-6.134;2022-12-11T09:35:09;14.48;;;6.25;;
38683;SDS011;24910;53.248;-6.134;2022-12-11T09:37:38;12.45;;;6.60;;
38683;SDS011;24910;53.248;-6.134;2022-12-11T09:40:08;14.38;;;6.85;;
38683;SDS011;24910;53.248;-6.134;2022-12-11T09:42:43;12.88;;;6.25;;
38683;SDS011;24910;53.248;-6.134;2022-12-11T09:45:18;10.90;;;6.07;;
38683;SDS011;24910;53.248;-6.134;2022-12-11T09:47:48;13.95;;;6.95;;
38683;SDS011;24910;53.248;-6.134;2022-12-11T09:50:21;13.82;;;7.18;;
38683;SDS011;24910;53.248;-6.134;2022-12-11T09:52:54;14.45;;;6.90;;
38683;SDS011;24910;53.248;-6.134;2022-12-11T09:55:32;10.02;;;6.70;;
38683;SDS011;24910;53.248;-6.134;2022-12-11T09:58:12;10.48;;;5.95;;
38683;SDS011;24910;53.248;-6.134;2022-12-11T10:00:51;11.95;;;5.80;;
38683;SDS011;24910;53.248;-6.134;2022-12-11T10:03:29;12.25;;;5.70;;
38683;SDS011;24910;53.248;-6.134;2022-12-11T10:06:16;10.05;;;5.95;;
38683;SDS011;24910;53.248;-6.134;2022-12-11T10:08:52;12.80;;;6.38;;
38683;SDS011;24910;53.248;-6.134;2022-12-11T10:11:35;11.98;;;6.47;;
38683;SDS011;24910;53.248;-6.134;2022-12-11T10:14:26;11.60;;;6.50;;
38683;SDS011;24910;53.248;-6.134;2022-12-11T10:17:03;17.17;;;7.03;;
38683;SDS011;24910;53.248;-6.134;2022-12-11T10:19:38;14.90;;;7.47;;
38683;SDS011;24910;53.248;-6.134;2022-12-11T10:24:42;14.13;;;7.07;;
38683;SDS011;24910;53.248;-6.134;2022-12-11T10:27:39;13.32;;;6.95;;
38683;SDS011;24910;53.248;-6.134;2022-12-11T10:30:14;14.70;;;7.30;;
38683;SDS011;24910;53.248;-6.134;2022-12-11T10:32:48;12.27;;;6.63;;
38683;SDS011;24910;53.248;-6.134;2022-12-11T10:35:24;13.15;;;6.63;;
38683;SDS011;24910;53.248;-6.134;2022-12-11T10:38:00;16.42;;;8.05;;
38683;SDS011;24910;53.248;-6.134;2022-12-11T10:40:40;12.10;;;6.45;;
38683;SDS011;24910;53.248;-6.134;2022-12-11T10:43:12;12.00;;;6.88;;
38683;SDS011;24910;53.248;-6.134;2022-12-11T10:45:51;15.30;;;6.75;;
38683;SDS011;24910;53.248;-6.134;2022-12-11T10:48:21;11.27;;;6.00;;
38683;SDS011;24910;53.248;-6.134;2022-12-11T10:50:56;13.70;;;6.40;;
38683;SDS011;24910;53.248;-6.134;2022-12-11T10:53:27;10.27;;;5.82;;
38683;SDS011;24910;53.248;-6.134;2022-12-11T10:55:56;15.82;;;7.03;;
38683;SDS011;24910;53.248;-6.134;2022-12-11T10:58:27;13.55;;;6.55;;
38683;SDS011;24910;53.248;-6.134;2022-12-11T11:01:05;14.40;;;7.00;;
38683;SDS011;24910;53.248;-6.134;2022-12-11T11:03:52;15.20;;;7.18;;
38683;SDS011;24910;53.248;-6.134;2022-12-11T11:06:25;14.20;;;7.63;;
38683;SDS011;24910;53.248;-6.134;2022-12-11T11:08:54;14.13;;;7.68;;
38683;SDS011;24910;53.248;-6.134;2022-12-11T11:11:26;13.90;;;8.40;;
38683;SDS011;24910;53.248;-6.134;2022-12-11T11:14:09;15.60;;;8.00;;
38683;SDS011;24910;53.248;-6.134;2022-12-11T11:16:44;15.52;;;8.63;;
38683;SDS011;24910;53.248;-6.134;2022-12-11T11:19:20;14.13;;;7.65;;
38683;SDS011;24910;53.248;-6.134;2022-12-11T11:21:52;13.25;;;8.00;;
38683;SDS011;24910;53.248;-6.134;2022-12-11T11:24:25;11.23;;;7.60;;
38683;SDS011;24910;53.248;-6.134;2022-12-11T11:26:57;14.77;;;7.35;;
38683;SDS011;24910;53.248;-6.134;2022-12-11T11:29:41;12.82;;;6.35;;
38683;SDS011;24910;53.248;-6.134;2022-12-11T11:32:21;10.95;;;6.10;;
38683;SDS011;24910;53.248;-6.134;2022-12-11T11:35:04;12.40;;;6.53;;
38683;SDS011;24910;53.248;-6.134;2022-12-11T11:37:43;12.02;;;6.55;;
38683;SDS011;24910;53.248;-6.134;2022-12-11T11:40:15;16.63;;;7.07;;
38683;SDS011;24910;53.248;-6.134;2022-12-11T11:42:51;13.98;;;6.78;;
38683;SDS011;24910;53.248;-6.134;2022-12-11T11:45:30;17.65;;;6.13;;
38683;SDS011;24910;53.248;-6.134;2022-12-11T11:48:04;12.73;;;6.72;;
38683;SDS011;24910;53.248;-6.134;2022-12-11T11:50:40;12.63;;;7.47;;
38683;SDS011;24910;53.248;-6.134;2022-12-11T11:53:18;13.60;;;7.68;;
38683;SDS011;24910;53.248;-6.134;2022-12-11T11:55:53;16.30;;;8.00;;
38683;SDS011;24910;53.248;-6.134;2022-12-11T11:58:31;13.40;;;8.32;;
38683;SDS011;24910;53.248;-6.134;2022-12-11T12:01:08;13.98;;;7.35;;
38683;SDS011;24910;53.248;-6.134;2022-12-11T12:03:43;17.05;;;7.70;;
38683;SDS011;24910;53.248;-6.134;2022-12-11T12:06:16;17.73;;;8.48;;
38683;SDS011;24910;53.248;-6.134;2022-12-11T12:08:56;16.70;;;8.43;;
38683;SDS011;24910;53.248;-6.134;2022-12-11T12:11:36;14.25;;;7.07;;
38683;SDS011;24910;53.248;-6.134;2022-12-11T12:14:12;15.13;;;8.10;;
38683;SDS011;24910;53.248;-6.134;2022-12-11T12:17:05;16.92;;;8.50;;
38683;SDS011;24910;53.248;-6.134;2022-12-11T12:19:47;13.65;;;7.75;;
38683;SDS011;24910;53.248;-6.134;2022-12-11T12:25:25;18.17;;;8.50;;
38683;SDS011;24910;53.248;-6.134;2022-12-11T12:27:59;14.27;;;8.15;;
38683;SDS011;24910;53.248;-6.134;2022-12-11T12:30:37;20.73;;;8.82;;
38683;SDS011;24910;53.248;-6.134;2022-12-11T12:33:15;14.25;;;8.15;;
38683;SDS011;24910;53.248;-6.134;2022-12-11T12:35:57;17.13;;;8.32;;
38683;SDS011;24910;53.248;-6.134;2022-12-11T12:38:36;19.92;;;9.15;;
38683;SDS011;24910;53.248;-6.134;2022-12-11T12:41:12;18.70;;;8.45;;
38683;SDS011;24910;53.248;-6.134;2022-12-11T12:43:59;16.05;;;8.63;;
38683;SDS011;24910;53.248;-6.134;2022-12-11T12:46:43;16.90;;;9.30;;
38683;SDS011;24910;53.248;-6.134;2022-12-11T12:49:20;15.27;;;8.63;;
38683;SDS011;24910;53.248;-6.134;2022-12-11T12:51:58;12.50;;;8.18;;
38683;SDS011;24910;53.248;-6.134;2022-12-11T12:54:28;19.77;;;10.52;;
38683;SDS011;24910;53.248;-6.134;2022-12-11T12:56:59;30.77;;;17.05;;
38683;SDS011;24910;53.248;-6.134;2022-12-11T12:59:31;21.33;;;12.27;;
38683;SDS011;24910;53.248;-6.134;2022-12-11T13:02:00;14.93;;;9.05;;
38683;SDS011;24910;53.248;-6.134;2022-12-11T13:04:37;15.10;;;8.40;;
38683;SDS011;24910;53.248;-6.134;2022-12-11T13:07:26;19.13;;;7.63;;
38683;SDS011;24910;53.248;-6.134;2022-12-11T13:10:00;16.45;;;7.55;;
38683;SDS011;24910;53.248;-6.134;2022-12-11T13:12:40;15.10;;;8.20;;
38683;SDS011;24910;53.248;-6.134;2022-12-11T13:18:29;12.18;;;7.60;;
38683;SDS011;24910;53.248;-6.134;2022-12-11T13:21:01;15.13;;;7.57;;
38683;SDS011;24910;53.248;-6.134;2022-12-11T13:23:33;13.87;;;7.43;;
38683;SDS011;24910;53.248;-6.134;2022-12-11T13:26:03;13.57;;;7.32;;
38683;SDS011;24910;53.248;-6.134;2022-12-11T13:28:33;12.75;;;7.30;;
38683;SDS011;24910;53.248;-6.134;2022-12-11T13:31:31;14.43;;;7.28;;
38683;SDS011;24910;53.248;-6.134;2022-12-11T13:34:06;19.25;;;7.82;;
38683;SDS011;24910;53.248;-6.134;2022-12-11T13:36:45;13.95;;;7.97;;
38683;SDS011;24910;53.248;-6.134;2022-12-11T13:39:17;15.32;;;8.13;;
38683;SDS011;24910;53.248;-6.134;2022-12-11T13:41:50;16.10;;;8.38;;
38683;SDS011;24910;53.248;-6.134;2022-12-11T13:44:23;13.30;;;7.85;;
38683;SDS011;24910;53.248;-6.134;2022-12-11T13:46:56;15.93;;;8.57;;
38683;SDS011;24910;53.248;-6.134;2022-12-11T13:49:28;14.30;;;7.95;;
38683;SDS011;24910;53.248;-6.134;2022-12-11T13:52:01;18.20;;;8.43;;
38683;SDS011;24910;53.248;-6.134;2022-12-11T13:54:33;20.17;;;10.17;;
38683;SDS011;24910;53.248;-6.134;2022-12-11T13:57:12;19.20;;;9.75;;
38683;SDS011;24910;53.248;-6.134;2022-12-11T13:59:46;14.35;;;8.15;;
38683;SDS011;24910;53.248;-6.134;2022-12-11T14:02:17;14.02;;;8.27;;
38683;SDS011;24910;53.248;-6.134;2022-12-11T14:04:50;14.50;;;7.40;;
38683;SDS011;24910;53.248;-6.134;2022-12-11T14:07:22;12.93;;;7.85;;
38683;SDS011;24910;53.248;-6.134;2022-12-11T14:09:58;14.00;;;7.72;;
38683;SDS011;24910;53.248;-6.134;2022-12-11T14:12:30;14.27;;;8.43;;
38683;SDS011;24910;53.248;-6.134;2022-12-11T14:15:00;13.90;;;7.13;;
38683;SDS011;24910;53.248;-6.134;2022-12-11T14:17:31;16.67;;;7.45;;
38683;SDS011;24910;53.248;-6.134;2022-12-11T14:20:02;17.63;;;7.63;;
38683;SDS011;24910;53.248;-6.134;2022-12-11T14:22:34;15.60;;;7.63;;
38683;SDS011;24910;53.248;-6.134;2022-12-11T14:25:15;13.50;;;8.00;;
38683;SDS011;24910;53.248;-6.134;2022-12-11T14:27:49;14.85;;;7.78;;
38683;SDS011;24910;53.248;-6.134;2022-12-11T14:30:20;12.60;;;8.23;;
38683;SDS011;24910;53.248;-6.134;2022-12-11T14:32:50;15.98;;;9.35;;
38683;SDS011;24910;53.248;-6.134;2022-12-11T14:35:25;17.35;;;8.15;;
38683;SDS011;24910;53.248;-6.134;2022-12-11T14:38:06;16.60;;;9.07;;
38683;SDS011;24910;53.248;-6.134;2022-12-11T14:40:42;15.65;;;8.55;;
38683;SDS011;24910;53.248;-6.134;2022-12-11T14:43:14;13.27;;;7.97;;
38683;SDS011;24910;53.248;-6.134;2022-12-11T14:45:50;16.33;;;8.73;;
38683;SDS011;24910;53.248;-6.134;2022-12-11T14:48:26;18.75;;;8.40;;
38683;SDS011;24910;53.248;-6.134;2022-12-11T14:50:58;13.13;;;7.55;;
38683;SDS011;24910;53.248;-6.134;2022-12-11T14:53:31;13.35;;;7.10;;
38683;SDS011;24910;53.248;-6.134;2022-12-11T14:56:06;14.90;;;7.45;;
38683;SDS011;24910;53.248;-6.134;2022-12-11T14:58:41;11.40;;;6.65;;
38683;SDS011;24910;53.248;-6.134;2022-12-11T15:01:23;12.35;;;7.20;;
38683;SDS011;24910;53.248;-6.134;2022-12-11T15:04:01;15.15;;;7.50;;
38683;SDS011;24910;53.248;-6.134;2022-12-11T15:06:33;14.52;;;8.00;;
38683;SDS011;24910;53.248;-6.134;2022-12-11T15:09:17;16.33;;;8.43;;